createdAt,value
2023-06-26T00:01:02.743Z,5.83
2023-06-26T00:06:06.146Z,5.32
2023-06-26T00:11:09.510Z,5.47
2023-06-26T00:16:14.208Z,5.50
2023-06-26T00:21:17.832Z,5.78
2023-06-26T00:26:21.369Z,6.30
2023-06-26T00:31:26.333Z,6.40
2023-06-26T00:36:29.967Z,6.50
2023-06-26T00:41:34.593Z,6.13
2023-06-26T00:46:39.537Z,5.50
2023-06-26T00:51:43.177Z,5.38
2023-06-26T00:56:47.585Z,6.43
2023-06-26T01:01:52.526Z,5.53
2023-06-26T01:06:57.242Z,6.28
2023-06-26T01:12:01.954Z,5.72
2023-06-26T01:17:07.260Z,5.40
2023-06-26T01:22:15.980Z,6.57
2023-06-26T01:27:23.260Z,6.45
2023-06-26T01:32:26.786Z,6.13
2023-06-26T01:37:31.556Z,6.07
2023-06-26T01:42:36.869Z,5.77
2023-06-26T01:47:43.535Z,5.50
2023-06-26T01:52:49.865Z,5.78
2023-06-26T01:57:55.591Z,6.20
2023-06-26T02:03:00.040Z,5.85
2023-06-26T02:08:04.213Z,6.53
2023-06-26T02:13:08.997Z,6.47
2023-06-26T02:18:12.547Z,5.77
2023-06-26T02:23:15.927Z,5.80
2023-06-26T02:28:21.196Z,5.87
2023-06-26T02:33:24.647Z,5.57
2023-06-26T02:38:28.243Z,6.13
2023-06-26T02:43:33.173Z,5.90
2023-06-26T02:48:37.643Z,6.00
2023-06-26T02:53:41.365Z,6.27
2023-06-26T02:58:59.245Z,6.28
2023-06-26T03:04:05.677Z,6.55
2023-06-26T03:09:09.562Z,5.80
2023-06-26T03:14:15.252Z,6.38
2023-06-26T03:19:18.891Z,6.00
2023-06-26T03:24:42.313Z,5.70
2023-06-26T03:29:47.899Z,6.67
2023-06-26T03:34:52.028Z,6.40
2023-06-26T03:39:55.458Z,6.20
2023-06-26T03:45:01.238Z,5.75
2023-06-26T03:50:06.231Z,6.27
2023-06-26T03:55:10.419Z,6.20
2023-06-26T04:00:17.257Z,5.85
2023-06-26T04:05:20.841Z,6.67
2023-06-26T04:10:24.435Z,6.15
2023-06-26T04:15:29.166Z,6.20
2023-06-26T04:20:33.058Z,5.80
2023-06-26T04:25:38.960Z,6.13
2023-06-26T04:30:43.830Z,5.70
2023-06-26T04:35:49.693Z,6.30
2023-06-26T04:40:53.091Z,6.07
2023-06-26T04:45:58.587Z,6.32
2023-06-26T04:51:02.073Z,5.88
2023-06-26T04:56:39.427Z,6.18
2023-06-26T05:34:50.490Z,6.43
2023-06-26T05:39:54.164Z,6.38
2023-06-26T05:44:57.543Z,6.43
2023-06-26T05:50:02.618Z,6.25
2023-06-26T05:55:06.380Z,5.82
2023-06-26T06:00:11.830Z,5.88
2023-06-26T06:05:20.488Z,6.07
2023-06-26T06:10:24.579Z,5.80
2023-06-26T06:15:30.823Z,5.68
2023-06-26T06:20:35.907Z,5.60
2023-06-26T06:25:39.498Z,5.10
2023-06-26T06:30:45.045Z,5.88
2023-06-26T06:35:50.671Z,5.85
2023-06-26T06:40:54.233Z,5.00
2023-06-26T06:45:57.729Z,6.00
2023-06-26T06:51:03.518Z,6.38
2023-06-26T06:56:06.781Z,5.97
2023-06-26T07:01:10.356Z,6.38
2023-06-26T07:06:15.104Z,5.97
2023-06-26T07:11:18.523Z,5.75
2023-06-26T07:16:21.829Z,5.50
2023-06-26T07:21:27.000Z,5.80
2023-06-26T07:26:43.804Z,6.55
2023-06-26T07:31:49.268Z,5.65
2023-06-26T07:36:54.113Z,6.00
2023-06-26T07:41:59.426Z,6.07
2023-06-26T07:47:02.778Z,5.90
2023-06-26T07:52:07.747Z,5.88
2023-06-26T07:57:12.594Z,5.85
2023-06-26T08:02:15.907Z,5.95
2023-06-26T08:07:21.073Z,5.80
2023-06-26T08:12:24.426Z,5.47
2023-06-26T08:17:29.446Z,5.72
2023-06-26T08:22:35.107Z,5.80
2023-06-26T08:27:38.463Z,6.43
2023-06-26T08:32:42.155Z,6.10
2023-06-26T08:37:46.812Z,5.85
2023-06-26T08:42:54.078Z,5.80
2023-06-26T08:47:57.830Z,6.15
2023-06-26T08:53:08.164Z,5.63
2023-06-26T08:58:11.511Z,5.90
2023-06-26T09:03:15.370Z,6.47
2023-06-26T09:08:20.142Z,5.90
2023-06-26T09:13:30.175Z,5.63
2023-06-26T09:18:35.104Z,5.70
2023-06-26T09:23:42.457Z,5.72
2023-06-26T09:28:45.804Z,5.50
2023-06-26T09:33:51.305Z,5.47
2023-06-26T09:38:56.242Z,5.70
2023-06-26T09:44:04.232Z,5.90
2023-06-26T09:49:08.621Z,5.55
2023-06-26T09:54:13.349Z,5.63
2023-06-26T09:59:17.613Z,5.70
2023-06-26T10:04:22.800Z,4.95
2023-06-26T10:09:29.451Z,5.70
2023-06-26T10:14:35.926Z,5.00
2023-06-26T10:19:40.228Z,5.15
2023-06-26T10:24:46.188Z,5.10
2023-06-26T10:29:51.173Z,5.22
2023-06-26T10:34:54.681Z,4.50
2023-06-26T10:40:02.122Z,4.90
2023-06-26T10:45:11.495Z,4.50
2023-06-26T10:50:23.819Z,4.88
2023-06-26T10:55:30.958Z,5.18
2023-06-26T11:00:35.073Z,4.70
2023-06-26T11:05:38.642Z,5.07
2023-06-26T11:10:53.604Z,4.63
2023-06-26T11:15:59.599Z,4.85
2023-06-26T11:21:07.279Z,5.18
2023-06-26T11:26:18.899Z,5.07
2023-06-26T11:31:28.945Z,5.65
2023-06-26T11:36:33.179Z,5.93
2023-06-26T11:41:38.345Z,5.25
2023-06-26T11:46:41.670Z,4.88
2023-06-26T11:51:45.033Z,5.32
2023-06-26T11:56:55.276Z,5.88
2023-06-26T12:01:58.684Z,5.63
2023-06-26T12:07:05.368Z,6.03
2023-06-26T12:12:10.936Z,6.00
2023-06-26T12:17:14.993Z,5.93
2023-06-26T12:22:19.327Z,5.85
2023-06-26T12:27:23.982Z,5.15
2023-06-26T12:32:28.176Z,5.95
2023-06-26T12:37:31.637Z,6.20
2023-06-26T12:42:36.610Z,5.55
2023-06-26T12:47:42.374Z,5.97
2023-06-26T12:52:45.846Z,5.40
2023-06-26T12:57:51.392Z,5.57
2023-06-26T13:02:54.783Z,5.88
2023-06-26T13:07:58.677Z,6.20
2023-06-26T13:13:03.597Z,6.22
2023-06-26T13:18:06.976Z,6.55
2023-06-26T13:23:10.392Z,6.95
2023-06-26T13:28:15.051Z,6.30
2023-06-26T13:33:18.424Z,6.18
2023-06-26T13:38:25.365Z,6.25
2023-06-26T13:43:30.878Z,6.97
2023-06-26T13:48:34.725Z,6.72
2023-06-26T13:53:38.176Z,7.07
2023-06-26T13:58:42.800Z,6.18
2023-06-26T14:03:46.063Z,6.82
2023-06-26T14:08:49.846Z,6.68
2023-06-26T14:13:54.784Z,6.43
2023-06-26T14:18:58.119Z,6.95
2023-06-26T14:24:01.658Z,6.25
2023-06-26T14:29:06.419Z,6.63
2023-06-26T14:34:09.864Z,6.63
2023-06-26T14:39:13.368Z,7.07
2023-06-26T14:44:18.571Z,6.70
2023-06-26T14:49:22.646Z,6.80
2023-06-26T14:54:26.104Z,6.95
2023-06-26T14:59:30.816Z,6.38
2023-06-26T15:04:34.173Z,7.10
2023-06-26T15:09:37.724Z,6.82
2023-06-26T15:14:42.377Z,5.82
2023-06-26T15:19:45.756Z,6.50
2023-06-26T15:24:49.065Z,5.50
2023-06-26T15:29:53.709Z,5.53
2023-06-26T15:34:57.273Z,4.60
2023-06-26T15:40:00.601Z,4.75
2023-06-26T15:45:05.947Z,3.40
2023-06-26T15:50:09.891Z,3.40
2023-06-26T15:55:13.887Z,3.20
2023-06-26T16:00:19.609Z,3.50
2023-06-26T16:05:23.035Z,3.70
2023-06-26T16:10:27.751Z,3.67
2023-06-26T16:15:32.601Z,3.10
2023-06-26T16:20:35.952Z,3.58
2023-06-26T16:25:39.388Z,3.50
2023-06-26T16:30:44.205Z,3.20
2023-06-26T16:35:47.580Z,3.85
2023-06-26T16:40:50.901Z,3.53
2023-06-26T16:45:55.533Z,3.72
2023-06-26T16:50:58.893Z,4.07
2023-06-26T16:56:02.215Z,4.38
2023-06-26T17:01:06.937Z,4.35
2023-06-26T17:06:11.632Z,5.28
2023-06-26T17:11:14.935Z,5.03
2023-06-26T17:16:19.585Z,5.50
2023-06-26T17:21:23.086Z,5.75
2023-06-26T17:26:26.598Z,5.53
2023-06-26T17:31:32.739Z,6.28
2023-06-26T17:36:36.377Z,7.00
2023-06-26T17:41:39.929Z,6.40
2023-06-26T17:46:44.609Z,5.93
2023-06-26T17:51:47.952Z,5.95
2023-06-26T17:56:51.390Z,6.28
2023-06-26T18:01:59.803Z,5.50
2023-06-26T18:07:03.397Z,4.80
2023-06-26T18:12:07.199Z,5.03
2023-06-26T18:17:12.153Z,4.18
2023-06-26T18:22:15.447Z,3.58
2023-06-26T18:27:18.824Z,2.90
2023-06-26T18:32:23.501Z,3.10
2023-06-26T18:37:26.824Z,2.45
2023-06-26T18:42:30.154Z,2.40
2023-06-26T18:47:35.178Z,2.38
2023-06-26T18:52:38.495Z,2.00
2023-06-26T18:57:41.880Z,3.10
2023-06-26T19:02:46.933Z,2.35
2023-06-26T19:07:50.534Z,2.30
2023-06-26T19:12:55.010Z,2.47
2023-06-26T19:18:02.406Z,2.10
2023-06-26T19:23:06.695Z,2.22
2023-06-26T19:28:10.670Z,2.20
2023-06-26T19:33:15.837Z,2.05
2023-06-26T19:38:19.256Z,2.45
2023-06-26T19:43:22.943Z,2.25
2023-06-26T19:48:28.371Z,1.83
2023-06-26T19:53:32.012Z,2.10
2023-06-26T19:58:35.516Z,2.20
2023-06-26T20:03:41.003Z,1.83
2023-06-26T20:08:44.558Z,2.07
2023-06-26T20:13:47.973Z,2.27
2023-06-26T20:18:53.222Z,1.87
2023-06-26T20:23:56.899Z,1.90
2023-06-26T20:29:00.267Z,1.90
2023-06-26T20:34:05.666Z,2.27
2023-06-26T20:39:09.301Z,1.97
2023-06-26T20:44:13.073Z,1.80
2023-06-26T20:49:18.698Z,2.10
2023-06-26T20:54:22.789Z,2.27
2023-06-26T20:59:26.431Z,2.00
2023-06-26T21:04:31.572Z,1.83
2023-06-26T21:09:34.996Z,2.07
2023-06-26T21:14:39.682Z,2.00
2023-06-26T21:19:44.753Z,2.40
2023-06-26T21:24:48.487Z,1.90
2023-06-26T21:29:52.829Z,1.87
2023-06-26T21:34:57.731Z,1.83
2023-06-26T21:40:01.376Z,2.10
2023-06-26T21:45:05.157Z,1.93
2023-06-26T21:50:10.957Z,1.80
2023-06-26T21:55:14.694Z,1.90
2023-06-26T22:00:22.697Z,1.87
2023-06-26T22:05:27.798Z,2.07
2023-06-26T22:10:32.127Z,2.10
2023-06-26T22:15:35.368Z,2.13
2023-06-26T22:20:40.456Z,2.10
2023-06-26T22:25:44.214Z,2.10
2023-06-26T22:30:47.679Z,1.97
2023-06-26T22:35:52.698Z,2.27
2023-06-26T22:40:56.802Z,2.27
2023-06-26T22:46:00.263Z,2.40
2023-06-26T22:51:05.247Z,2.30
2023-06-26T22:56:09.442Z,3.07
2023-06-26T23:01:15.498Z,2.13
2023-06-26T23:06:23.037Z,2.50
2023-06-26T23:11:26.723Z,2.33
2023-06-26T23:16:34.588Z,2.43
2023-06-26T23:21:40.060Z,2.20
2023-06-26T23:26:44.212Z,2.10
2023-06-26T23:31:49.008Z,2.10
2023-06-26T23:36:54.079Z,2.53
2023-06-26T23:41:57.458Z,2.40
2023-06-26T23:47:02.357Z,2.10
2023-06-26T23:52:08.443Z,2.30
2023-06-26T23:57:11.789Z,2.20
